sensor_id;sensor_type;location;lat;lon;timestamp;P1;durP1;ratioP1;P2;durP2;ratioP2
9200;SDS011;4635;48.686;9.008;2022-08-19T00:04:41;25.47;;;17.50;;
9200;SDS011;4635;48.686;9.008;2022-08-19T00:07:18;25.20;;;17.50;;
9200;SDS011;4635;48.686;9.008;2022-08-19T00:10:22;28.53;;;17.63;;
9200;SDS011;4635;48.686;9.008;2022-08-19T00:13:32;21.50;;;16.97;;
9200;SDS011;4635;48.686;9.008;2022-08-19T00:16:06;25.53;;;18.63;;
9200;SDS011;4635;48.686;9.008;2022-08-19T00:25:13;25.57;;;18.57;;
9200;SDS011;4635;48.686;9.008;2022-08-19T00:27:55;25.53;;;17.40;;
9200;SDS011;4635;48.686;9.008;2022-08-19T00:30:24;27.27;;;18.50;;
9200;SDS011;4635;48.686;9.008;2022-08-19T00:37:27;26.17;;;19.97;;
9200;SDS011;4635;48.686;9.008;2022-08-19T00:44:03;26.53;;;19.23;;
9200;SDS011;4635;48.686;9.008;2022-08-19T00:47:24;27.47;;;19.87;;
9200;SDS011;4635;48.686;9.008;2022-08-19T00:50:10;26.27;;;20.37;;
9200;SDS011;4635;48.686;9.008;2022-08-19T00:53:14;27.17;;;18.37;;
9200;SDS011;4635;48.686;9.008;2022-08-19T00:55:45;27.70;;;21.33;;
9200;SDS011;4635;48.686;9.008;2022-08-19T00:58:44;24.77;;;19.60;;
9200;SDS011;4635;48.686;9.008;2022-08-19T01:01:15;29.13;;;20.50;;
9200;SDS011;4635;48.686;9.008;2022-08-19T01:03:42;29.80;;;20.40;;
9200;SDS011;4635;48.686;9.008;2022-08-19T01:06:09;26.60;;;19.60;;
9200;SDS011;4635;48.686;9.008;2022-08-19T01:08:40;28.27;;;19.70;;
9200;SDS011;4635;48.686;9.008;2022-08-19T01:11:10;30.20;;;21.33;;
9200;SDS011;4635;48.686;9.008;2022-08-19T01:13:40;34.23;;;21.83;;
9200;SDS011;4635;48.686;9.008;2022-08-19T01:16:08;30.53;;;22.43;;
9200;SDS011;4635;48.686;9.008;2022-08-19T01:21:42;30.23;;;21.30;;
9200;SDS011;4635;48.686;9.008;2022-08-19T01:24:23;28.53;;;20.57;;
9200;SDS011;4635;48.686;9.008;2022-08-19T01:27:05;26.37;;;21.00;;
9200;SDS011;4635;48.686;9.008;2022-08-19T01:32:56;30.33;;;21.40;;
9200;SDS011;4635;48.686;9.008;2022-08-19T01:38:22;36.70;;;22.53;;
9200;SDS011;4635;48.686;9.008;2022-08-19T01:40:58;30.97;;;23.30;;
9200;SDS011;4635;48.686;9.008;2022-08-19T01:43:24;44.57;;;25.30;;
9200;SDS011;4635;48.686;9.008;2022-08-19T01:45:53;29.10;;;22.67;;
9200;SDS011;4635;48.686;9.008;2022-08-19T01:48:21;34.60;;;24.50;;
9200;SDS011;4635;48.686;9.008;2022-08-19T01:50:51;31.77;;;23.10;;
9200;SDS011;4635;48.686;9.008;2022-08-19T01:53:25;36.53;;;24.20;;
9200;SDS011;4635;48.686;9.008;2022-08-19T01:56:12;34.37;;;24.90;;
9200;SDS011;4635;48.686;9.008;2022-08-19T01:58:58;39.43;;;25.50;;
9200;SDS011;4635;48.686;9.008;2022-08-19T02:01:29;32.80;;;23.70;;
9200;SDS011;4635;48.686;9.008;2022-08-19T02:03:58;36.93;;;24.23;;
9200;SDS011;4635;48.686;9.008;2022-08-19T02:06:37;38.50;;;24.70;;
9200;SDS011;4635;48.686;9.008;2022-08-19T02:09:12;42.40;;;24.77;;
9200;SDS011;4635;48.686;9.008;2022-08-19T02:12:12;37.93;;;26.50;;
9200;SDS011;4635;48.686;9.008;2022-08-19T02:14:58;35.40;;;24.87;;
9200;SDS011;4635;48.686;9.008;2022-08-19T02:17:36;42.30;;;28.00;;
9200;SDS011;4635;48.686;9.008;2022-08-19T02:20:19;30.17;;;23.50;;
9200;SDS011;4635;48.686;9.008;2022-08-19T02:22:53;38.30;;;25.20;;
9200;SDS011;4635;48.686;9.008;2022-08-19T02:25:27;47.90;;;27.90;;
9200;SDS011;4635;48.686;9.008;2022-08-19T02:31:20;34.27;;;24.30;;
9200;SDS011;4635;48.686;9.008;2022-08-19T02:33:52;35.40;;;26.43;;
9200;SDS011;4635;48.686;9.008;2022-08-19T02:36:24;43.23;;;28.77;;
9200;SDS011;4635;48.686;9.008;2022-08-19T02:39:03;48.97;;;26.10;;
9200;SDS011;4635;48.686;9.008;2022-08-19T02:41:59;32.27;;;23.77;;
9200;SDS011;4635;48.686;9.008;2022-08-19T02:47:34;34.73;;;23.73;;
9200;SDS011;4635;48.686;9.008;2022-08-19T02:50:09;37.00;;;26.20;;
9200;SDS011;4635;48.686;9.008;2022-08-19T02:55:56;44.77;;;27.20;;
9200;SDS011;4635;48.686;9.008;2022-08-19T02:58:34;38.73;;;27.93;;
9200;SDS011;4635;48.686;9.008;2022-08-19T03:04:22;35.03;;;27.37;;
9200;SDS011;4635;48.686;9.008;2022-08-19T03:07:15;42.87;;;27.27;;
9200;SDS011;4635;48.686;9.008;2022-08-19T03:10:06;36.90;;;27.63;;
9200;SDS011;4635;48.686;9.008;2022-08-19T03:12:53;37.33;;;24.40;;
9200;SDS011;4635;48.686;9.008;2022-08-19T03:15:34;37.50;;;26.20;;
9200;SDS011;4635;48.686;9.008;2022-08-19T03:18:10;39.27;;;28.13;;
9200;SDS011;4635;48.686;9.008;2022-08-19T03:20:56;38.10;;;26.80;;
9200;SDS011;4635;48.686;9.008;2022-08-19T03:23:45;37.50;;;27.87;;
9200;SDS011;4635;48.686;9.008;2022-08-19T03:26:38;40.10;;;27.00;;
9200;SDS011;4635;48.686;9.008;2022-08-19T03:29:29;38.23;;;27.07;;
9200;SDS011;4635;48.686;9.008;2022-08-19T03:32:13;38.17;;;27.90;;
9200;SDS011;4635;48.686;9.008;2022-08-19T03:35:13;39.93;;;28.60;;
9200;SDS011;4635;48.686;9.008;2022-08-19T03:41:20;40.77;;;28.67;;
9200;SDS011;4635;48.686;9.008;2022-08-19T03:43:57;39.03;;;30.50;;
9200;SDS011;4635;48.686;9.008;2022-08-19T03:46:52;46.73;;;32.00;;
9200;SDS011;4635;48.686;9.008;2022-08-19T03:59:27;46.83;;;31.20;;
9200;SDS011;4635;48.686;9.008;2022-08-19T04:02:08;37.23;;;28.37;;
9200;SDS011;4635;48.686;9.008;2022-08-19T04:04:40;43.00;;;29.43;;
9200;SDS011;4635;48.686;9.008;2022-08-19T04:07:13;41.97;;;29.93;;
9200;SDS011;4635;48.686;9.008;2022-08-19T04:10:25;41.07;;;28.70;;
9200;SDS011;4635;48.686;9.008;2022-08-19T04:12:59;39.73;;;29.80;;
9200;SDS011;4635;48.686;9.008;2022-08-19T04:15:38;43.93;;;29.70;;
9200;SDS011;4635;48.686;9.008;2022-08-19T04:18:22;41.70;;;29.07;;
9200;SDS011;4635;48.686;9.008;2022-08-19T04:21:16;42.67;;;29.30;;
9200;SDS011;4635;48.686;9.008;2022-08-19T04:23:53;40.87;;;29.80;;
9200;SDS011;4635;48.686;9.008;2022-08-19T04:26:24;50.00;;;32.50;;
9200;SDS011;4635;48.686;9.008;2022-08-19T04:31:57;49.50;;;32.43;;
9200;SDS011;4635;48.686;9.008;2022-08-19T04:34:41;48.30;;;30.70;;
9200;SDS011;4635;48.686;9.008;2022-08-19T04:37:14;43.27;;;29.43;;
9200;SDS011;4635;48.686;9.008;2022-08-19T04:39:55;44.10;;;30.43;;
9200;SDS011;4635;48.686;9.008;2022-08-19T04:42:40;45.20;;;31.20;;
9200;SDS011;4635;48.686;9.008;2022-08-19T04:45:18;44.10;;;31.23;;
9200;SDS011;4635;48.686;9.008;2022-08-19T04:47:45;45.57;;;31.40;;
9200;SDS011;4635;48.686;9.008;2022-08-19T04:50:15;43.67;;;32.27;;
9200;SDS011;4635;48.686;9.008;2022-08-19T04:52:49;42.00;;;30.97;;
9200;SDS011;4635;48.686;9.008;2022-08-19T04:55:25;43.13;;;31.63;;
9200;SDS011;4635;48.686;9.008;2022-08-19T04:58:25;46.20;;;31.97;;
9200;SDS011;4635;48.686;9.008;2022-08-19T05:00:56;42.17;;;30.00;;
9200;SDS011;4635;48.686;9.008;2022-08-19T05:03:37;46.63;;;29.73;;
9200;SDS011;4635;48.686;9.008;2022-08-19T05:06:15;45.83;;;33.87;;
9200;SDS011;4635;48.686;9.008;2022-08-19T05:09:14;44.30;;;30.53;;
9200;SDS011;4635;48.686;9.008;2022-08-19T05:11:49;42.00;;;31.60;;
9200;SDS011;4635;48.686;9.008;2022-08-19T05:14:18;45.03;;;33.63;;
9200;SDS011;4635;48.686;9.008;2022-08-19T05:16:56;49.57;;;32.77;;
9200;SDS011;4635;48.686;9.008;2022-08-19T05:19:40;49.80;;;32.87;;
9200;SDS011;4635;48.686;9.008;2022-08-19T05:22:25;45.70;;;30.53;;
9200;SDS011;4635;48.686;9.008;2022-08-19T05:25:07;49.53;;;33.10;;
9200;SDS011;4635;48.686;9.008;2022-08-19T05:27:39;51.57;;;31.73;;
9200;SDS011;4635;48.686;9.008;2022-08-19T05:30:11;60.63;;;32.37;;
9200;SDS011;4635;48.686;9.008;2022-08-19T05:32:40;44.70;;;32.53;;
9200;SDS011;4635;48.686;9.008;2022-08-19T05:35:11;44.50;;;30.50;;
9200;SDS011;4635;48.686;9.008;2022-08-19T05:37:39;61.67;;;32.40;;
9200;SDS011;4635;48.686;9.008;2022-08-19T05:40:07;47.17;;;31.73;;
9200;SDS011;4635;48.686;9.008;2022-08-19T05:42:35;48.80;;;31.37;;
9200;SDS011;4635;48.686;9.008;2022-08-19T05:45:04;46.40;;;31.20;;
9200;SDS011;4635;48.686;9.008;2022-08-19T05:47:43;58.27;;;31.50;;
9200;SDS011;4635;48.686;9.008;2022-08-19T05:50:13;42.90;;;30.60;;
9200;SDS011;4635;48.686;9.008;2022-08-19T05:52:42;44.50;;;32.57;;
9200;SDS011;4635;48.686;9.008;2022-08-19T05:55:20;45.43;;;31.20;;
9200;SDS011;4635;48.686;9.008;2022-08-19T05:57:49;55.17;;;32.20;;
9200;SDS011;4635;48.686;9.008;2022-08-19T06:00:17;50.60;;;33.80;;
9200;SDS011;4635;48.686;9.008;2022-08-19T06:03:00;43.23;;;30.77;;
9200;SDS011;4635;48.686;9.008;2022-08-19T06:05:28;51.67;;;31.17;;
9200;SDS011;4635;48.686;9.008;2022-08-19T06:08:00;54.60;;;32.73;;
9200;SDS011;4635;48.686;9.008;2022-08-19T06:10:28;43.57;;;32.27;;
9200;SDS011;4635;48.686;9.008;2022-08-19T06:12:58;67.87;;;31.93;;
9200;SDS011;4635;48.686;9.008;2022-08-19T06:15:33;49.47;;;29.47;;
9200;SDS011;4635;48.686;9.008;2022-08-19T06:18:19;50.50;;;32.63;;
9200;SDS011;4635;48.686;9.008;2022-08-19T06:21:01;52.37;;;30.70;;
9200;SDS011;4635;48.686;9.008;2022-08-19T06:23:44;54.80;;;32.00;;
9200;SDS011;4635;48.686;9.008;2022-08-19T06:26:12;40.97;;;30.83;;
9200;SDS011;4635;48.686;9.008;2022-08-19T06:28:41;42.87;;;29.17;;
9200;SDS011;4635;48.686;9.008;2022-08-19T06:31:12;46.33;;;30.90;;
9200;SDS011;4635;48.686;9.008;2022-08-19T06:33:49;41.53;;;31.70;;
9200;SDS011;4635;48.686;9.008;2022-08-19T06:36:20;40.77;;;28.07;;
9200;SDS011;4635;48.686;9.008;2022-08-19T06:39:10;56.73;;;30.83;;
9200;SDS011;4635;48.686;9.008;2022-08-19T06:41:55;49.43;;;29.43;;
9200;SDS011;4635;48.686;9.008;2022-08-19T06:44:32;52.63;;;28.90;;
9200;SDS011;4635;48.686;9.008;2022-08-19T06:47:07;46.30;;;30.30;;
9200;SDS011;4635;48.686;9.008;2022-08-19T06:49:39;41.33;;;28.00;;
9200;SDS011;4635;48.686;9.008;2022-08-19T06:52:30;36.63;;;27.77;;
9200;SDS011;4635;48.686;9.008;2022-08-19T06:55:21;38.57;;;28.60;;
9200;SDS011;4635;48.686;9.008;2022-08-19T06:58:12;44.30;;;26.10;;
9200;SDS011;4635;48.686;9.008;2022-08-19T07:00:44;35.53;;;27.10;;
9200;SDS011;4635;48.686;9.008;2022-08-19T07:03:40;36.97;;;26.73;;
9200;SDS011;4635;48.686;9.008;2022-08-19T07:06:26;39.77;;;26.70;;
9200;SDS011;4635;48.686;9.008;2022-08-19T07:09:12;34.57;;;25.83;;
9200;SDS011;4635;48.686;9.008;2022-08-19T07:14:42;32.20;;;26.30;;
9200;SDS011;4635;48.686;9.008;2022-08-19T07:17:19;34.47;;;26.07;;
9200;SDS011;4635;48.686;9.008;2022-08-19T07:19:58;37.83;;;27.77;;
9200;SDS011;4635;48.686;9.008;2022-08-19T07:25:53;35.50;;;24.90;;
9200;SDS011;4635;48.686;9.008;2022-08-19T07:28:26;35.87;;;25.60;;
9200;SDS011;4635;48.686;9.008;2022-08-19T07:30:56;27.57;;;23.47;;
9200;SDS011;4635;48.686;9.008;2022-08-19T07:33:31;34.23;;;24.80;;
9200;SDS011;4635;48.686;9.008;2022-08-19T07:36:04;36.13;;;24.77;;
9200;SDS011;4635;48.686;9.008;2022-08-19T07:38:48;28.33;;;22.97;;
9200;SDS011;4635;48.686;9.008;2022-08-19T07:41:54;37.43;;;23.50;;
9200;SDS011;4635;48.686;9.008;2022-08-19T07:44:26;35.00;;;24.90;;
9200;SDS011;4635;48.686;9.008;2022-08-19T07:47:09;40.63;;;22.53;;
9200;SDS011;4635;48.686;9.008;2022-08-19T07:49:42;31.63;;;23.70;;
9200;SDS011;4635;48.686;9.008;2022-08-19T07:52:11;38.30;;;24.77;;
9200;SDS011;4635;48.686;9.008;2022-08-19T07:54:45;32.87;;;24.23;;
9200;SDS011;4635;48.686;9.008;2022-08-19T07:57:27;39.63;;;24.83;;
9200;SDS011;4635;48.686;9.008;2022-08-19T07:59:57;32.30;;;25.87;;
9200;SDS011;4635;48.686;9.008;2022-08-19T08:02:40;33.10;;;23.47;;
9200;SDS011;4635;48.686;9.008;2022-08-19T08:05:11;29.37;;;23.93;;
9200;SDS011;4635;48.686;9.008;2022-08-19T08:08:04;36.27;;;26.33;;
9200;SDS011;4635;48.686;9.008;2022-08-19T08:10:59;44.97;;;24.03;;
9200;SDS011;4635;48.686;9.008;2022-08-19T08:13:31;28.60;;;22.80;;
9200;SDS011;4635;48.686;9.008;2022-08-19T08:19:40;37.30;;;23.77;;
9200;SDS011;4635;48.686;9.008;2022-08-19T08:22:34;31.13;;;24.80;;
9200;SDS011;4635;48.686;9.008;2022-08-19T08:25:40;34.47;;;26.43;;
9200;SDS011;4635;48.686;9.008;2022-08-19T08:28:09;39.90;;;26.87;;
9200;SDS011;4635;48.686;9.008;2022-08-19T08:30:43;42.70;;;27.20;;
9200;SDS011;4635;48.686;9.008;2022-08-19T08:33:36;36.67;;;25.60;;
9200;SDS011;4635;48.686;9.008;2022-08-19T08:36:12;37.60;;;25.90;;
9200;SDS011;4635;48.686;9.008;2022-08-19T08:38:57;33.30;;;26.13;;
9200;SDS011;4635;48.686;9.008;2022-08-19T08:41:31;33.50;;;24.20;;
9200;SDS011;4635;48.686;9.008;2022-08-19T08:44:22;31.13;;;24.67;;
9200;SDS011;4635;48.686;9.008;2022-08-19T08:47:03;35.43;;;24.77;;
9200;SDS011;4635;48.686;9.008;2022-08-19T08:49:56;34.43;;;24.40;;
9200;SDS011;4635;48.686;9.008;2022-08-19T08:55:40;36.07;;;26.90;;
9200;SDS011;4635;48.686;9.008;2022-08-19T08:58:35;36.60;;;22.63;;
9200;SDS011;4635;48.686;9.008;2022-08-19T09:01:17;28.60;;;24.33;;
9200;SDS011;4635;48.686;9.008;2022-08-19T09:04:04;34.10;;;24.20;;
9200;SDS011;4635;48.686;9.008;2022-08-19T09:06:49;28.93;;;22.23;;
9200;SDS011;4635;48.686;9.008;2022-08-19T09:09:30;25.63;;;21.83;;
9200;SDS011;4635;48.686;9.008;2022-08-19T09:12:34;36.30;;;23.43;;
9200;SDS011;4635;48.686;9.008;2022-08-19T09:15:42;31.40;;;22.47;;
9200;SDS011;4635;48.686;9.008;2022-08-19T09:18:20;36.80;;;22.67;;
9200;SDS011;4635;48.686;9.008;2022-08-19T09:20:53;31.37;;;22.77;;
9200;SDS011;4635;48.686;9.008;2022-08-19T09:23:26;28.00;;;21.43;;
9200;SDS011;4635;48.686;9.008;2022-08-19T09:26:20;25.77;;;19.60;;
9200;SDS011;4635;48.686;9.008;2022-08-19T09:28:59;26.63;;;20.47;;
9200;SDS011;4635;48.686;9.008;2022-08-19T09:31:56;41.33;;;21.77;;
9200;SDS011;4635;48.686;9.008;2022-08-19T09:34:46;41.77;;;21.80;;
9200;SDS011;4635;48.686;9.008;2022-08-19T09:37:52;25.63;;;20.90;;
9200;SDS011;4635;48.686;9.008;2022-08-19T09:40:36;28.80;;;21.33;;
9200;SDS011;4635;48.686;9.008;2022-08-19T09:43:13;29.73;;;22.10;;
9200;SDS011;4635;48.686;9.008;2022-08-19T09:45:53;27.10;;;20.73;;
9200;SDS011;4635;48.686;9.008;2022-08-19T09:48:26;30.20;;;21.80;;
9200;SDS011;4635;48.686;9.008;2022-08-19T09:50:53;23.23;;;19.43;;
9200;SDS011;4635;48.686;9.008;2022-08-19T09:53:51;30.27;;;19.03;;
9200;SDS011;4635;48.686;9.008;2022-08-19T09:56:20;26.37;;;19.90;;
9200;SDS011;4635;48.686;9.008;2022-08-19T10:01:39;30.53;;;19.67;;
9200;SDS011;4635;48.686;9.008;2022-08-19T10:07:21;25.33;;;20.00;;
9200;SDS011;4635;48.686;9.008;2022-08-19T10:10:07;23.93;;;18.63;;
9200;SDS011;4635;48.686;9.008;2022-08-19T10:12:39;34.83;;;21.30;;
9200;SDS011;4635;48.686;9.008;2022-08-19T10:15:15;28.27;;;22.57;;
9200;SDS011;4635;48.686;9.008;2022-08-19T10:17:48;26.13;;;22.10;;
9200;SDS011;4635;48.686;9.008;2022-08-19T10:20:19;26.17;;;20.13;;
9200;SDS011;4635;48.686;9.008;2022-08-19T10:22:51;23.60;;;18.30;;
9200;SDS011;4635;48.686;9.008;2022-08-19T10:25:29;35.20;;;19.20;;
9200;SDS011;4635;48.686;9.008;2022-08-19T10:27:59;26.40;;;17.87;;
9200;SDS011;4635;48.686;9.008;2022-08-19T10:30:33;22.37;;;17.40;;
9200;SDS011;4635;48.686;9.008;2022-08-19T10:33:06;22.10;;;18.23;;
9200;SDS011;4635;48.686;9.008;2022-08-19T10:39:11;26.73;;;15.57;;
9200;SDS011;4635;48.686;9.008;2022-08-19T10:41:42;27.93;;;15.40;;
9200;SDS011;4635;48.686;9.008;2022-08-19T10:44:13;20.93;;;15.50;;
9200;SDS011;4635;48.686;9.008;2022-08-19T10:46:49;16.50;;;13.37;;
9200;SDS011;4635;48.686;9.008;2022-08-19T10:49:19;22.30;;;13.50;;
9200;SDS011;4635;48.686;9.008;2022-08-19T10:51:49;24.00;;;19.53;;
9200;SDS011;4635;48.686;9.008;2022-08-19T10:54:35;24.17;;;14.80;;
9200;SDS011;4635;48.686;9.008;2022-08-19T10:57:27;17.33;;;12.40;;
9200;SDS011;4635;48.686;9.008;2022-08-19T10:59:59;14.83;;;11.87;;
9200;SDS011;4635;48.686;9.008;2022-08-19T11:02:35;18.30;;;12.83;;
9200;SDS011;4635;48.686;9.008;2022-08-19T11:05:09;15.93;;;10.97;;
9200;SDS011;4635;48.686;9.008;2022-08-19T11:08:11;17.03;;;13.57;;
9200;SDS011;4635;48.686;9.008;2022-08-19T11:16:37;23.80;;;13.40;;
9200;SDS011;4635;48.686;9.008;2022-08-19T11:19:05;24.57;;;13.80;;
9200;SDS011;4635;48.686;9.008;2022-08-19T11:21:41;17.47;;;14.70;;
9200;SDS011;4635;48.686;9.008;2022-08-19T11:24:11;17.30;;;14.00;;
9200;SDS011;4635;48.686;9.008;2022-08-19T11:26:42;31.73;;;15.20;;
9200;SDS011;4635;48.686;9.008;2022-08-19T11:29:23;24.13;;;14.70;;
9200;SDS011;4635;48.686;9.008;2022-08-19T11:37:54;15.40;;;12.70;;
9200;SDS011;4635;48.686;9.008;2022-08-19T11:40:36;20.00;;;12.50;;
9200;SDS011;4635;48.686;9.008;2022-08-19T11:43:07;17.53;;;11.83;;
9200;SDS011;4635;48.686;9.008;2022-08-19T11:45:58;18.63;;;14.43;;
9200;SDS011;4635;48.686;9.008;2022-08-19T11:48:33;20.50;;;10.70;;
9200;SDS011;4635;48.686;9.008;2022-08-19T11:51:14;20.60;;;10.80;;
9200;SDS011;4635;48.686;9.008;2022-08-19T11:53:51;20.83;;;12.03;;
9200;SDS011;4635;48.686;9.008;2022-08-19T11:56:37;18.30;;;12.60;;
9200;SDS011;4635;48.686;9.008;2022-08-19T11:59:07;14.60;;;11.30;;
9200;SDS011;4635;48.686;9.008;2022-08-19T12:01:37;15.67;;;11.83;;
9200;SDS011;4635;48.686;9.008;2022-08-19T12:04:12;16.40;;;11.23;;
9200;SDS011;4635;48.686;9.008;2022-08-19T12:10:03;15.83;;;11.60;;
9200;SDS011;4635;48.686;9.008;2022-08-19T12:12:47;15.27;;;11.80;;
9200;SDS011;4635;48.686;9.008;2022-08-19T12:15:24;14.33;;;11.13;;
9200;SDS011;4635;48.686;9.008;2022-08-19T12:18:32;12.33;;;9.93;;
9200;SDS011;4635;48.686;9.008;2022-08-19T12:20:58;12.80;;;10.70;;
9200;SDS011;4635;48.686;9.008;2022-08-19T12:23:31;18.30;;;10.50;;
9200;SDS011;4635;48.686;9.008;2022-08-19T12:26:12;10.00;;;9.00;;
9200;SDS011;4635;48.686;9.008;2022-08-19T12:28:43;9.50;;;8.40;;
9200;SDS011;4635;48.686;9.008;2022-08-19T12:31:14;21.00;;;9.80;;
9200;SDS011;4635;48.686;9.008;2022-08-19T12:37:02;19.20;;;9.27;;
9200;SDS011;4635;48.686;9.008;2022-08-19T12:39:41;21.33;;;9.80;;
9200;SDS011;4635;48.686;9.008;2022-08-19T12:42:28;20.97;;;8.60;;
9200;SDS011;4635;48.686;9.008;2022-08-19T12:45:17;14.13;;;8.63;;
9200;SDS011;4635;48.686;9.008;2022-08-19T12:48:06;10.77;;;8.40;;
9200;SDS011;4635;48.686;9.008;2022-08-19T12:50:53;14.67;;;10.80;;
9200;SDS011;4635;48.686;9.008;2022-08-19T12:53:34;13.13;;;8.40;;
9200;SDS011;4635;48.686;9.008;2022-08-19T12:56:17;14.90;;;11.33;;
9200;SDS011;4635;48.686;9.008;2022-08-19T12:58:51;12.97;;;7.50;;
9200;SDS011;4635;48.686;9.008;2022-08-19T13:01:19;21.70;;;8.30;;
9200;SDS011;4635;48.686;9.008;2022-08-19T13:04:06;13.53;;;8.60;;
9200;SDS011;4635;48.686;9.008;2022-08-19T13:06:51;14.60;;;8.10;;
9200;SDS011;4635;48.686;9.008;2022-08-19T13:09:35;16.03;;;9.13;;
9200;SDS011;4635;48.686;9.008;2022-08-19T13:12:27;12.53;;;8.80;;
9200;SDS011;4635;48.686;9.008;2022-08-19T13:15:05;11.27;;;7.90;;
9200;SDS011;4635;48.686;9.008;2022-08-19T13:20:45;34.73;;;8.53;;
9200;SDS011;4635;48.686;9.008;2022-08-19T13:23:18;13.90;;;6.67;;
9200;SDS011;4635;48.686;9.008;2022-08-19T13:25:56;13.00;;;8.00;;
9200;SDS011;4635;48.686;9.008;2022-08-19T13:28:42;12.07;;;6.50;;
9200;SDS011;4635;48.686;9.008;2022-08-19T13:31:29;15.77;;;8.77;;
9200;SDS011;4635;48.686;9.008;2022-08-19T13:34:38;11.97;;;7.90;;
9200;SDS011;4635;48.686;9.008;2022-08-19T13:37:40;8.70;;;7.07;;
9200;SDS011;4635;48.686;9.008;2022-08-19T13:40:23;12.43;;;7.70;;
9200;SDS011;4635;48.686;9.008;2022-08-19T13:43:03;8.70;;;7.90;;
9200;SDS011;4635;48.686;9.008;2022-08-19T13:45:48;37.50;;;12.83;;
9200;SDS011;4635;48.686;9.008;2022-08-19T13:48:34;22.33;;;10.20;;
9200;SDS011;4635;48.686;9.008;2022-08-19T13:51:11;46.70;;;10.50;;
9200;SDS011;4635;48.686;9.008;2022-08-19T13:54:15;27.43;;;9.80;;
9200;SDS011;4635;48.686;9.008;2022-08-19T13:57:23;12.90;;;10.03;;
9200;SDS011;4635;48.686;9.008;2022-08-19T14:00:05;19.23;;;10.27;;
9200;SDS011;4635;48.686;9.008;2022-08-19T14:02:56;20.27;;;9.50;;
9200;SDS011;4635;48.686;9.008;2022-08-19T14:06:03;11.93;;;9.00;;
9200;SDS011;4635;48.686;9.008;2022-08-19T14:08:34;11.17;;;9.00;;
9200;SDS011;4635;48.686;9.008;2022-08-19T14:11:12;19.33;;;8.40;;
9200;SDS011;4635;48.686;9.008;2022-08-19T14:14:00;10.80;;;8.73;;
9200;SDS011;4635;48.686;9.008;2022-08-19T14:16:50;10.10;;;9.20;;
9200;SDS011;4635;48.686;9.008;2022-08-19T14:19:38;12.40;;;9.70;;
9200;SDS011;4635;48.686;9.008;2022-08-19T14:22:20;10.80;;;8.97;;
9200;SDS011;4635;48.686;9.008;2022-08-19T14:24:50;12.80;;;10.13;;
9200;SDS011;4635;48.686;9.008;2022-08-19T14:27:21;24.03;;;8.80;;
9200;SDS011;4635;48.686;9.008;2022-08-19T14:29:50;10.47;;;9.50;;
9200;SDS011;4635;48.686;9.008;2022-08-19T14:32:24;8.90;;;8.00;;
9200;SDS011;4635;48.686;9.008;2022-08-19T14:34:57;9.40;;;8.33;;
9200;SDS011;4635;48.686;9.008;2022-08-19T14:37:50;12.53;;;8.90;;
9200;SDS011;4635;48.686;9.008;2022-08-19T14:40:26;12.73;;;8.83;;
9200;SDS011;4635;48.686;9.008;2022-08-19T14:43:09;11.70;;;9.67;;
9200;SDS011;4635;48.686;9.008;2022-08-19T14:45:40;10.13;;;8.10;;
9200;SDS011;4635;48.686;9.008;2022-08-19T14:48:15;10.00;;;7.90;;
9200;SDS011;4635;48.686;9.008;2022-08-19T14:50:46;12.77;;;9.27;;
9200;SDS011;4635;48.686;9.008;2022-08-19T14:53:27;12.30;;;8.90;;
9200;SDS011;4635;48.686;9.008;2022-08-19T14:56:08;9.23;;;8.40;;
9200;SDS011;4635;48.686;9.008;2022-08-19T14:58:43;10.97;;;8.90;;
9200;SDS011;4635;48.686;9.008;2022-08-19T15:01:34;12.80;;;8.63;;
9200;SDS011;4635;48.686;9.008;2022-08-19T15:04:08;10.00;;;9.10;;
9200;SDS011;4635;48.686;9.008;2022-08-19T15:09:51;10.33;;;9.20;;
9200;SDS011;4635;48.686;9.008;2022-08-19T15:12:28;9.97;;;8.97;;
9200;SDS011;4635;48.686;9.008;2022-08-19T15:17:52;14.57;;;7.90;;
9200;SDS011;4635;48.686;9.008;2022-08-19T15:20:27;7.33;;;6.63;;
9200;SDS011;4635;48.686;9.008;2022-08-19T15:23:12;7.97;;;7.17;;
9200;SDS011;4635;48.686;9.008;2022-08-19T15:25:43;8.60;;;7.70;;
9200;SDS011;4635;48.686;9.008;2022-08-19T15:28:20;8.17;;;7.47;;
9200;SDS011;4635;48.686;9.008;2022-08-19T15:30:47;12.73;;;7.83;;
9200;SDS011;4635;48.686;9.008;2022-08-19T15:33:21;9.80;;;8.07;;
9200;SDS011;4635;48.686;9.008;2022-08-19T15:36:13;11.40;;;8.70;;
9200;SDS011;4635;48.686;9.008;2022-08-19T15:38:55;12.50;;;8.70;;
9200;SDS011;4635;48.686;9.008;2022-08-19T15:41:34;10.20;;;7.17;;
9200;SDS011;4635;48.686;9.008;2022-08-19T15:44:07;7.97;;;7.20;;
9200;SDS011;4635;48.686;9.008;2022-08-19T15:46:41;8.07;;;7.37;;
9200;SDS011;4635;48.686;9.008;2022-08-19T15:49:23;8.43;;;7.73;;
9200;SDS011;4635;48.686;9.008;2022-08-19T15:51:54;8.07;;;7.47;;
9200;SDS011;4635;48.686;9.008;2022-08-19T15:54:33;8.10;;;7.30;;
9200;SDS011;4635;48.686;9.008;2022-08-19T15:57:01;10.17;;;7.57;;
9200;SDS011;4635;48.686;9.008;2022-08-19T15:59:47;7.97;;;7.17;;
9200;SDS011;4635;48.686;9.008;2022-08-19T16:02:32;7.57;;;6.97;;
9200;SDS011;4635;48.686;9.008;2022-08-19T16:05:28;8.10;;;7.40;;
9200;SDS011;4635;48.686;9.008;2022-08-19T16:08:18;8.97;;;6.97;;
9200;SDS011;4635;48.686;9.008;2022-08-19T16:10:47;6.97;;;6.27;;
9200;SDS011;4635;48.686;9.008;2022-08-19T16:13:15;9.43;;;8.43;;
9200;SDS011;4635;48.686;9.008;2022-08-19T16:15:43;9.10;;;8.10;;
9200;SDS011;4635;48.686;9.008;2022-08-19T16:18:11;7.70;;;7.00;;
9200;SDS011;4635;48.686;9.008;2022-08-19T16:20:38;12.40;;;8.07;;
9200;SDS011;4635;48.686;9.008;2022-08-19T16:23:06;9.63;;;6.30;;
9200;SDS011;4635;48.686;9.008;2022-08-19T16:25:34;8.50;;;6.60;;
9200;SDS011;4635;48.686;9.008;2022-08-19T16:28:06;15.17;;;6.57;;
9200;SDS011;4635;48.686;9.008;2022-08-19T16:30:35;7.70;;;6.43;;
9200;SDS011;4635;48.686;9.008;2022-08-19T16:33:08;7.83;;;6.10;;
9200;SDS011;4635;48.686;9.008;2022-08-19T16:35:36;8.93;;;7.13;;
9200;SDS011;4635;48.686;9.008;2022-08-19T16:38:04;9.33;;;6.90;;
9200;SDS011;4635;48.686;9.008;2022-08-19T16:40:35;7.53;;;6.83;;
9200;SDS011;4635;48.686;9.008;2022-08-19T16:43:08;7.47;;;6.20;;
9200;SDS011;4635;48.686;9.008;2022-08-19T16:45:36;8.67;;;6.77;;
9200;SDS011;4635;48.686;9.008;2022-08-19T16:48:06;6.37;;;5.80;;
9200;SDS011;4635;48.686;9.008;2022-08-19T16:50:36;7.00;;;6.30;;
9200;SDS011;4635;48.686;9.008;2022-08-19T16:53:06;8.23;;;6.17;;
9200;SDS011;4635;48.686;9.008;2022-08-19T16:55:35;7.10;;;6.27;;
9200;SDS011;4635;48.686;9.008;2022-08-19T16:58:02;11.00;;;7.00;;
9200;SDS011;4635;48.686;9.008;2022-08-19T17:00:37;8.87;;;7.00;;
9200;SDS011;4635;48.686;9.008;2022-08-19T17:03:06;6.43;;;5.93;;
9200;SDS011;4635;48.686;9.008;2022-08-19T17:05:40;11.20;;;6.53;;
9200;SDS011;4635;48.686;9.008;2022-08-19T17:08:12;7.00;;;6.47;;
9200;SDS011;4635;48.686;9.008;2022-08-19T17:10:46;7.93;;;6.60;;
9200;SDS011;4635;48.686;9.008;2022-08-19T17:13:25;6.83;;;6.23;;
9200;SDS011;4635;48.686;9.008;2022-08-19T17:15:56;8.33;;;7.53;;
9200;SDS011;4635;48.686;9.008;2022-08-19T17:18:51;7.70;;;6.90;;
9200;SDS011;4635;48.686;9.008;2022-08-19T17:21:35;8.00;;;6.77;;
9200;SDS011;4635;48.686;9.008;2022-08-19T17:24:09;10.47;;;6.97;;
9200;SDS011;4635;48.686;9.008;2022-08-19T17:26:36;8.60;;;7.00;;
9200;SDS011;4635;48.686;9.008;2022-08-19T17:29:13;7.63;;;6.83;;
9200;SDS011;4635;48.686;9.008;2022-08-19T17:31:45;9.43;;;6.60;;
9200;SDS011;4635;48.686;9.008;2022-08-19T17:34:17;10.73;;;9.67;;
9200;SDS011;4635;48.686;9.008;2022-08-19T17:36:46;6.93;;;6.23;;
9200;SDS011;4635;48.686;9.008;2022-08-19T17:39:13;7.70;;;7.00;;
9200;SDS011;4635;48.686;9.008;2022-08-19T17:41:44;9.93;;;6.70;;
9200;SDS011;4635;48.686;9.008;2022-08-19T17:44:13;11.23;;;6.30;;
9200;SDS011;4635;48.686;9.008;2022-08-19T17:46:45;7.67;;;6.83;;
9200;SDS011;4635;48.686;9.008;2022-08-19T17:49:24;6.80;;;6.10;;